Time;durP1;ratioP1;P1;durP2;ratioP2;P2;SDS_P1;SDS_P2;PMS_P1;PMS_P2;Temp;Humidity;BMP_temperature;BMP_pressure;BME280_temperature;BME280_humidity;BME280_pressure;Samples;Min_cycle;Max_cycle;Signal;HPM_P1;HPM_P2
2023/07/16 00:01:33;;;;;;;1.23;1.13;;;;;15.90;94112.00;;;;7394559;19;20139;-78
2023/07/16 00:04:09;;;;;;;1.20;1.10;;;;;15.80;94116.00;;;;7394648;19;20658;-78
2023/07/16 00:06:45;;;;;;;1.60;1.38;;;;;15.80;94115.00;;;;7394655;19;20144;-79
2023/07/16 00:09:20;;;;;;;1.20;1.10;;;;;15.50;94108.00;;;;7393114;19;20152;-77
2023/07/16 00:11:49;;;;;;;2.45;1.10;;;;;15.40;94090.00;;;;7394081;19;20461;-78
2023/07/16 00:14:23;;;;;;;6.90;1.48;;;;;15.40;94087.00;;;;7393242;19;20608;-77
2023/07/16 00:16:50;;;;;;;3.03;1.40;;;;;15.30;94096.00;;;;7393583;19;20584;-79
2023/07/16 00:19:25;;;;;;;1.40;1.30;;;;;15.30;94101.00;;;;7394794;19;20136;-78
2023/07/16 00:21:58;;;;;;;1.95;1.20;;;;;15.20;94104.00;;;;7392372;19;20185;-77
2023/07/16 00:24:34;;;;;;;2.85;1.33;;;;;15.20;94095.00;;;;7388727;19;20600;-81
2023/07/16 00:27:08;;;;;;;1.58;1.48;;;;;15.10;94081.00;;;;7393849;19;20158;-77
2023/07/16 00:29:36;;;;;;;1.80;1.40;;;;;15.00;94098.00;;;;7393582;19;20584;-78
2023/07/16 00:32:12;;;;;;;1.52;1.42;;;;;14.90;94100.00;;;;7384731;19;20149;-78
2023/07/16 00:34:46;;;;;;;1.50;1.40;;;;;14.90;94107.00;;;;7391253;19;20532;-78
2023/07/16 00:37:21;;;;;;;2.00;1.75;;;;;14.90;94104.00;;;;7392043;19;20605;-76
2023/07/16 00:39:48;;;;;;;1.92;1.52;;;;;14.90;94094.00;;;;7387589;19;20292;-76
2023/07/16 00:42:24;;;;;;;4.35;1.73;;;;;14.80;94096.00;;;;7387884;19;20640;-77
2023/07/16 00:44:58;;;;;;;1.85;1.60;;;;;14.80;94100.00;;;;7392677;19;20148;-76
2023/07/16 00:47:47;;;;;;;2.45;1.75;;;;;14.70;94104.00;;;;7389437;19;20616;-77
2023/07/16 00:50:18;;;;;;;2.05;1.58;;;;;14.70;94127.00;;;;7391736;19;20536;-76
2023/07/16 00:52:58;;;;;;;1.95;1.70;;;;;14.50;94126.00;;;;7400824;19;20137;-78
2023/07/16 00:55:36;;;;;;;4.85;2.00;;;;;14.50;94129.00;;;;7399318;19;20145;-75
2023/07/16 00:58:11;;;;;;;8.55;1.73;;;;;14.40;94119.00;;;;7398242;19;20149;-77
2023/07/16 01:00:47;;;;;;;3.05;1.70;;;;;14.40;94121.00;;;;7399159;19;20182;-79
2023/07/16 01:03:25;;;;;;;2.30;1.67;;;;;14.30;94100.00;;;;7397309;19;20677;-79
2023/07/16 01:06:13;;;;;;;1.92;1.70;;;;;14.20;94098.00;;;;7398731;19;20148;-79
2023/07/16 01:09:03;;;;;;;2.60;1.80;;;;;14.20;94104.00;;;;7399070;19;20133;-80
2023/07/16 01:11:36;;;;;;;2.40;1.63;;;;;14.10;94091.00;;;;7398716;19;20148;-81
2023/07/16 01:14:16;;;;;;;1.60;1.45;;;;;14.30;94078.00;;;;7397994;19;20156;-79
2023/07/16 01:16:52;;;;;;;2.42;1.80;;;;;14.20;94069.00;;;;7400373;19;20510;-81
2023/07/16 01:19:27;;;;;;;2.17;1.95;;;;;14.30;94109.00;;;;7399094;19;20597;-80
2023/07/16 01:22:28;;;;;;;2.72;1.40;;;;;14.30;94128.00;;;;7399498;19;20617;-78
2023/07/16 01:25:15;;;;;;;3.47;1.75;;;;;14.30;94171.00;;;;7395931;19;20581;-79
2023/07/16 01:28:30;;;;;;;3.33;2.03;;;;;14.30;94142.00;;;;7398061;19;20149;-77
2023/07/16 01:31:00;;;;;;;3.38;2.20;;;;;14.10;94117.00;;;;7399396;19;20128;-79
2023/07/16 01:33:35;;;;;;;2.35;1.85;;;;;14.30;94124.00;;;;7400567;19;20133;-78
2023/07/16 01:36:13;;;;;;;3.25;2.38;;;;;14.30;94121.00;;;;7398112;19;20140;-79
2023/07/16 01:38:41;;;;;;;2.83;1.63;;;;;14.20;94101.00;;;;7397029;19;20136;-79
2023/07/16 01:41:15;;;;;;;3.58;1.65;;;;;14.40;94122.00;;;;7400576;19;20178;-79
2023/07/16 01:43:43;;;;;;;2.95;1.90;;;;;14.20;94129.00;;;;7399557;19;20158;-78
2023/07/16 01:46:24;;;;;;;2.58;1.90;;;;;14.30;94145.00;;;;7397158;19;20619;-79
2023/07/16 01:48:53;;;;;;;3.75;1.80;;;;;14.30;94166.00;;;;7398710;19;20144;-79
2023/07/16 01:51:27;;;;;;;3.40;1.95;;;;;14.10;94183.00;;;;7398846;19;20136;-79
2023/07/16 01:53:55;;;;;;;3.83;2.03;;;;;14.10;94178.00;;;;7399043;19;20153;-77
2023/07/16 01:56:33;;;;;;;4.55;1.70;;;;;14.10;94165.00;;;;7401352;19;20589;-79
2023/07/16 01:59:07;;;;;;;2.97;1.83;;;;;14.10;94147.00;;;;7396205;19;20153;-79
2023/07/16 02:01:44;;;;;;;2.22;1.80;;;;;14.10;94145.00;;;;7398928;19;20142;-79
2023/07/16 02:04:24;;;;;;;2.08;1.80;;;;;14.10;94151.00;;;;7391872;19;20160;-77
2023/07/16 02:06:53;;;;;;;4.18;1.83;;;;;14.00;94168.00;;;;7397212;19;20187;-77
2023/07/16 02:09:30;;;;;;;3.13;2.10;;;;;14.00;94152.00;;;;7398140;19;20152;-77
2023/07/16 02:11:58;;;;;;;2.40;1.70;;;;;14.10;94142.00;;;;7397092;19;20208;-79
2023/07/16 02:14:32;;;;;;;3.88;1.50;;;;;14.00;94137.00;;;;7396513;19;20159;-79
2023/07/16 02:17:08;;;;;;;3.03;1.95;;;;;14.00;94144.00;;;;7397000;19;20228;-80
2023/07/16 02:19:46;;;;;;;3.92;1.70;;;;;13.90;94145.00;;;;7396865;19;20155;-79
2023/07/16 02:22:31;;;;;;;3.03;1.88;;;;;13.90;94154.00;;;;7396708;19;20513;-78
2023/07/16 02:25:06;;;;;;;2.35;1.88;;;;;13.90;94161.00;;;;7396358;19;20148;-79
2023/07/16 02:27:40;;;;;;;3.08;2.10;;;;;14.00;94164.00;;;;7399106;19;20592;-79
2023/07/16 02:30:09;;;;;;;3.05;1.88;;;;;13.80;94183.00;;;;7398723;19;20140;-77
2023/07/16 02:32:46;;;;;;;3.88;1.75;;;;;13.90;94201.00;;;;7396512;19;20668;-78
2023/07/16 02:35:20;;;;;;;4.50;1.70;;;;;13.90;94189.00;;;;7396397;19;20172;-78
2023/07/16 02:37:57;;;;;;;5.82;2.10;;;;;13.80;94185.00;;;;7399549;19;20136;-78
2023/07/16 02:40:31;;;;;;;5.22;2.22;;;;;13.90;94167.00;;;;7397072;19;20157;-77
2023/07/16 02:42:59;;;;;;;5.97;2.40;;;;;13.90;94162.00;;;;7397569;19;20133;-77
2023/07/16 02:45:38;;;;;;;2.78;2.08;;;;;13.80;94158.00;;;;7397004;19;20171;-78
2023/07/16 02:48:08;;;;;;;6.03;2.10;;;;;13.70;94157.00;;;;7397680;19;20145;-78
2023/07/16 02:50:43;;;;;;;8.07;2.10;;;;;13.70;94135.00;;;;7399095;19;20133;-80
2023/07/16 02:53:11;;;;;;;13.27;2.63;;;;;13.70;94142.00;;;;7399021;19;20137;-80
2023/07/16 02:55:39;;;;;;;7.07;2.42;;;;;13.80;94150.00;;;;7394410;19;20152;-80
2023/07/16 02:58:13;;;;;;;6.05;2.55;;;;;13.80;94157.00;;;;7395726;19;20347;-80
2023/07/16 03:00:48;;;;;;;4.03;2.10;;;;;13.90;94168.00;;;;7396694;19;20148;-79
2023/07/16 03:03:25;;;;;;;4.97;2.97;;;;;13.90;94173.00;;;;7396147;19;20133;-80
2023/07/16 03:06:02;;;;;;;7.85;2.70;;;;;14.00;94188.00;;;;7390786;19;20219;-80
2023/07/16 03:08:31;;;;;;;7.47;2.47;;;;;13.90;94185.00;;;;7397218;19;20141;-78
2023/07/16 03:11:06;;;;;;;6.93;2.30;;;;;14.00;94176.00;;;;7394882;19;20141;-77
2023/07/16 03:13:33;;;;;;;6.75;2.38;;;;;13.90;94169.00;;;;7394402;19;20184;-79
2023/07/16 03:16:07;;;;;;;8.43;2.40;;;;;13.90;94171.00;;;;7397162;19;20592;-79
2023/07/16 03:18:43;;;;;;;5.65;2.17;;;;;13.80;94160.00;;;;7396380;19;20630;-78
2023/07/16 03:21:13;;;;;;;5.43;1.92;;;;;13.90;94162.00;;;;7396657;19;20723;-79
2023/07/16 03:23:48;;;;;;;7.30;2.95;;;;;13.90;94186.00;;;;7396786;19;20133;-77
2023/07/16 03:26:22;;;;;;;6.20;2.65;;;;;13.90;94161.00;;;;7396986;19;20132;-78
2023/07/16 03:28:57;;;;;;;5.75;2.33;;;;;14.00;94172.00;;;;7396391;19;20131;-78
2023/07/16 03:31:30;;;;;;;5.47;2.67;;;;;13.90;94189.00;;;;7395024;19;20160;-79
2023/07/16 03:34:00;;;;;;;6.65;2.53;;;;;13.80;94180.00;;;;7395100;19;20161;-80
2023/07/16 03:36:35;;;;;;;6.97;2.53;;;;;13.80;94201.00;;;;7396406;19;20163;-81
2023/07/16 03:39:03;;;;;;;7.93;2.55;;;;;13.80;94200.00;;;;7395765;19;20649;-78
2023/07/16 03:41:38;;;;;;;5.88;2.10;;;;;13.90;94207.00;;;;7393898;19;20148;-79
2023/07/16 03:44:08;;;;;;;7.90;2.30;;;;;13.80;94221.00;;;;7396522;19;20610;-80
2023/07/16 03:46:43;;;;;;;4.53;2.30;;;;;13.90;94218.00;;;;7391710;19;20157;-78
2023/07/16 03:49:18;;;;;;;6.20;2.28;;;;;14.00;94243.00;;;;7394759;19;20152;-79
2023/07/16 03:51:45;;;;;;;7.05;2.28;;;;;14.00;94235.00;;;;7394218;19;20152;-77
2023/07/16 03:54:27;;;;;;;8.55;2.03;;;;;14.10;94249.00;;;;7394364;19;20661;-76
2023/07/16 03:57:02;;;;;;;3.03;1.83;;;;;13.90;94260.00;;;;7389628;19;20625;-78
2023/07/16 03:59:37;;;;;;;5.68;2.78;;;;;14.00;94264.00;;;;7393213;19;20125;-76
2023/07/16 04:02:07;;;;;;;8.98;2.80;;;;;14.00;94253.00;;;;7394143;19;20624;-77
2023/07/16 04:04:41;;;;;;;8.50;2.67;;;;;14.10;94262.00;;;;7393675;19;20596;-77
2023/07/16 04:07:09;;;;;;;7.63;2.20;;;;;14.10;94244.00;;;;7395430;19;20512;-76
2023/07/16 04:09:43;;;;;;;7.65;2.13;;;;;14.10;94231.00;;;;7395220;19;20128;-76
2023/07/16 04:12:13;;;;;;;4.50;2.50;;;;;14.00;94238.00;;;;7393401;19;20145;-79
2023/07/16 04:14:48;;;;;;;7.78;2.35;;;;;13.90;94247.00;;;;7395384;19;20212;-78
2023/07/16 04:17:16;;;;;;;7.60;2.38;;;;;13.90;94241.00;;;;7395458;19;20141;-78
2023/07/16 04:19:51;;;;;;;7.43;2.17;;;;;13.90;94244.00;;;;7393269;19;20143;-77
2023/07/16 04:22:19;;;;;;;7.15;2.40;;;;;13.90;94250.00;;;;7393574;19;20510;-79
2023/07/16 04:24:53;;;;;;;7.53;2.67;;;;;14.00;94244.00;;;;7392745;19;20203;-77
2023/07/16 04:27:32;;;;;;;4.35;2.33;;;;;13.90;94255.00;;;;7398746;19;21261;-80
2023/07/16 04:30:07;;;;;;;11.82;2.42;;;;;14.10;94264.00;;;;7402765;19;20135;-80
2023/07/16 04:32:34;;;;;;;6.47;2.08;;;;;14.10;94263.00;;;;7397135;19;20145;-78
2023/07/16 04:35:09;;;;;;;6.20;1.90;;;;;14.20;94269.00;;;;7400152;19;20155;-78
2023/07/16 04:37:38;;;;;;;7.45;2.38;;;;;14.20;94284.00;;;;7400316;19;20148;-79
2023/07/16 04:40:13;;;;;;;6.78;2.03;;;;;14.10;94287.00;;;;7399616;19;20656;-78
2023/07/16 04:42:42;;;;;;;7.15;2.35;;;;;14.20;94288.00;;;;7399000;19;20612;-80
2023/07/16 04:45:16;;;;;;;15.27;2.55;;;;;14.30;94281.00;;;;7399786;19;20156;-79
2023/07/16 04:47:51;;;;;;;10.23;2.40;;;;;14.30;94280.00;;;;7399058;19;20592;-81
2023/07/16 04:50:26;;;;;;;7.75;2.20;;;;;14.50;94287.00;;;;7399744;19;20185;-76
2023/07/16 04:53:02;;;;;;;13.80;2.60;;;;;14.40;94280.00;;;;7401398;19;20604;-78
2023/07/16 04:55:39;;;;;;;5.47;2.25;;;;;14.50;94289.00;;;;7400428;19;20144;-77
2023/07/16 04:58:13;;;;;;;13.98;2.67;;;;;14.40;94303.00;;;;7400476;19;20125;-76
2023/07/16 05:00:47;;;;;;;4.35;2.15;;;;;14.40;94299.00;;;;7397964;19;20589;-77
2023/07/16 05:03:15;;;;;;;9.75;2.60;;;;;14.30;94244.00;;;;7390243;19;20654;-76
2023/07/16 05:05:55;;;;;;;5.55;2.47;;;;;14.50;94287.00;;;;7399724;19;20478;-77
2023/07/16 05:08:29;;;;;;;8.07;2.20;;;;;14.30;94303.00;;;;7396733;19;20184;-77
2023/07/16 05:11:06;;;;;;;6.20;2.10;;;;;14.40;94289.00;;;;7393838;19;20144;-76
2023/07/16 05:13:35;;;;;;;6.80;2.10;;;;;14.60;94284.00;;;;7399469;19;20160;-74
2023/07/16 05:16:09;;;;;;;6.22;2.28;;;;;14.60;94286.00;;;;7398206;19;20141;-78
2023/07/16 05:18:44;;;;;;;7.90;2.00;;;;;14.70;94291.00;;;;7397807;19;20146;-77
2023/07/16 05:21:21;;;;;;;7.78;2.45;;;;;14.70;94290.00;;;;7369150;19;20176;-74
2023/07/16 05:23:55;;;;;;;5.95;2.63;;;;;14.80;94310.00;;;;7286973;19;2004379;-77
2023/07/16 05:26:24;;;;;;;5.10;2.25;;;;;14.80;94307.00;;;;7386501;19;20581;-75
2023/07/16 05:29:00;;;;;;;6.10;2.00;;;;;14.90;94295.00;;;;7387341;19;20154;-77
2023/07/16 05:31:34;;;;;;;6.28;2.20;;;;;15.10;94302.00;;;;7382351;19;20174;-76
2023/07/16 05:34:10;;;;;;;4.40;1.92;;;;;15.10;94308.00;;;;7386750;19;20591;-76
2023/07/16 05:36:45;;;;;;;7.78;2.60;;;;;15.00;94309.00;;;;7387069;19;20138;-75
2023/07/16 05:39:19;;;;;;;4.72;1.98;;;;;15.00;94311.00;;;;7386397;19;20120;-77
2023/07/16 05:41:49;;;;;;;4.88;1.85;;;;;15.10;94299.00;;;;7384719;19;20624;-75
2023/07/16 05:44:24;;;;;;;9.80;2.20;;;;;15.20;94305.00;;;;7383398;19;20124;-75
2023/07/16 05:46:59;;;;;;;14.48;2.60;;;;;15.30;94314.00;;;;7385466;19;20652;-77
2023/07/16 05:49:42;;;;;;;4.65;1.60;;;;;15.20;94308.00;;;;7387877;19;20223;-77
2023/07/16 05:52:18;;;;;;;6.55;2.05;;;;;15.20;94310.00;;;;7383011;19;20560;-76
2023/07/16 05:54:53;;;;;;;3.83;2.00;;;;;15.20;94296.00;;;;7385648;19;20128;-77
2023/07/16 05:57:28;;;;;;;4.47;1.83;;;;;15.10;94307.00;;;;7387136;19;20132;-76
2023/07/16 06:00:05;;;;;;;4.40;1.55;;;;;15.10;94316.00;;;;7383708;19;20489;-77
2023/07/16 06:02:33;;;;;;;3.35;1.60;;;;;15.20;94301.00;;;;7385788;19;20192;-76
2023/07/16 06:05:08;;;;;;;3.95;1.98;;;;;15.30;94309.00;;;;7385474;19;20160;-76
2023/07/16 06:07:42;;;;;;;3.72;1.77;;;;;15.30;94328.00;;;;7382591;19;20857;-75
2023/07/16 06:10:18;;;;;;;6.43;2.00;;;;;15.40;94326.00;;;;7385178;19;20656;-73
2023/07/16 06:12:52;;;;;;;4.40;1.85;;;;;15.40;94316.00;;;;7385450;19;21106;-77
2023/07/16 06:15:26;;;;;;;4.22;2.00;;;;;15.20;94315.00;;;;7384758;19;20209;-77
2023/07/16 06:17:56;;;;;;;6.95;2.50;;;;;15.20;94333.00;;;;7386239;19;20635;-76
2023/07/16 06:20:34;;;;;;;6.68;2.03;;;;;15.20;94329.00;;;;7385430;19;20182;-76
2023/07/16 06:23:11;;;;;;;5.53;2.20;;;;;15.50;94327.00;;;;7386230;19;20597;-75
2023/07/16 06:25:44;;;;;;;5.50;2.13;;;;;15.60;94327.00;;;;7385439;19;20145;-75
2023/07/16 06:28:18;;;;;;;5.60;2.10;;;;;15.70;94335.00;;;;7386624;19;20620;-75
2023/07/16 06:30:52;;;;;;;5.63;1.70;;;;;15.70;94332.00;;;;7384924;19;20156;-75
2023/07/16 06:33:20;;;;;;;3.53;1.90;;;;;15.70;94336.00;;;;7386429;19;20133;-77
2023/07/16 06:35:48;;;;;;;9.30;1.95;;;;;15.80;94325.00;;;;7386066;19;20153;-76
2023/07/16 06:38:22;;;;;;;9.63;2.17;;;;;16.00;94318.00;;;;7385774;19;20477;-76
2023/07/16 06:40:53;;;;;;;5.95;2.25;;;;;16.40;94325.00;;;;7384286;19;20152;-76
2023/07/16 06:43:28;;;;;;;9.07;2.22;;;;;16.20;94328.00;;;;7386601;19;20132;-77
2023/07/16 06:45:55;;;;;;;5.97;1.80;;;;;16.20;94322.00;;;;7384954;19;20160;-77
2023/07/16 06:48:36;;;;;;;4.03;2.08;;;;;16.90;94332.00;;;;7383412;19;20157;-77
2023/07/16 06:51:10;;;;;;;2.50;1.63;;;;;17.10;94328.00;;;;7385836;19;20152;-77
2023/07/16 06:53:48;;;;;;;3.80;1.73;;;;;17.50;94333.00;;;;7386396;19;20616;-76
2023/07/16 06:56:16;;;;;;;7.03;2.15;;;;;17.90;94321.00;;;;7381384;19;20160;-75
2023/07/16 06:58:50;;;;;;;6.65;2.00;;;;;18.00;94311.00;;;;7383666;19;20588;-77
2023/07/16 07:01:18;;;;;;;5.03;2.00;;;;;18.30;94305.00;;;;7385245;19;20561;-76
2023/07/16 07:03:53;;;;;;;3.88;1.67;;;;;18.20;94296.00;;;;7385582;19;20215;-75
2023/07/16 07:06:22;;;;;;;3.75;1.70;;;;;18.30;94308.00;;;;7384512;19;20601;-76
2023/07/16 07:08:52;;;;;;;4.93;1.90;;;;;18.30;94313.00;;;;7385728;19;20182;-76
2023/07/16 07:11:26;;;;;;;4.47;1.60;;;;;18.40;94320.00;;;;7385857;19;20603;-76
2023/07/16 07:14:02;;;;;;;6.03;2.05;;;;;18.30;94309.00;;;;7385787;19;20135;-77
2023/07/16 07:16:39;;;;;;;6.20;1.80;;;;;18.30;94318.00;;;;7384740;19;20136;-76
2023/07/16 07:19:08;;;;;;;4.45;1.95;;;;;18.10;94321.00;;;;7386721;19;20208;-79
2023/07/16 07:21:42;;;;;;;4.85;1.60;;;;;17.90;94322.00;;;;7384306;19;20128;-76
2023/07/16 07:24:18;;;;;;;3.78;1.88;;;;;18.00;94332.00;;;;7383751;19;20155;-79
2023/07/16 07:26:52;;;;;;;6.95;1.58;;;;;17.90;94338.00;;;;7383905;19;20629;-76
2023/07/16 07:29:22;;;;;;;5.70;1.77;;;;;17.80;94337.00;;;;7385929;19;20133;-74
2023/07/16 07:31:56;;;;;;;5.93;2.10;;;;;18.00;94336.00;;;;7385380;19;20185;-76
2023/07/16 07:34:30;;;;;;;4.57;1.88;;;;;18.40;94347.00;;;;7385855;19;20458;-74
2023/07/16 07:37:08;;;;;;;2.35;1.70;;;;;18.70;94339.00;;;;7385872;19;20166;-79
2023/07/16 07:39:47;;;;;;;12.52;1.90;;;;;18.70;94352.00;;;;7385783;19;20565;-76
2023/07/16 07:42:21;;;;;;;2.63;1.75;;;;;18.30;94350.00;;;;7384210;19;20505;-74
2023/07/16 07:44:53;;;;;;;4.00;1.70;;;;;17.90;94350.00;;;;7383604;19;20592;-77
2023/07/16 07:47:34;;;;;;;3.85;1.70;;;;;18.10;94349.00;;;;7383351;19;20197;-77
2023/07/16 07:50:16;;;;;;;5.03;2.08;;;;;18.40;94360.00;;;;7382728;19;20616;-76
2023/07/16 07:52:51;;;;;;;5.60;1.60;;;;;18.80;94354.00;;;;7383300;19;20532;-76
2023/07/16 07:55:18;;;;;;;5.13;1.80;;;;;19.10;94360.00;;;;7383900;19;20623;-75
2023/07/16 07:57:46;;;;;;;3.35;1.52;;;;;19.20;94347.00;;;;7382683;19;20129;-74
2023/07/16 08:00:22;;;;;;;5.78;2.03;;;;;19.50;94329.00;;;;7383787;19;20635;-74
2023/07/16 08:02:57;;;;;;;7.05;1.63;;;;;19.80;94332.00;;;;7390847;19;20558;-76
2023/07/16 08:05:33;;;;;;;4.72;1.70;;;;;19.30;94344.00;;;;7389594;19;20152;-77
2023/07/16 08:08:02;;;;;;;6.57;1.73;;;;;18.80;94339.00;;;;7392537;19;21366;-77
2023/07/16 08:10:36;;;;;;;4.13;1.73;;;;;19.20;94355.00;;;;7390078;19;20192;-77
2023/07/16 08:13:04;;;;;;;6.68;1.70;;;;;18.80;94341.00;;;;7393554;19;20147;-82
2023/07/16 08:15:47;;;;;;;5.25;2.00;;;;;18.40;94349.00;;;;7391641;19;20615;-79
2023/07/16 08:18:15;;;;;;;10.18;1.80;;;;;18.50;94336.00;;;;7390432;19;20608;-79
2023/07/16 08:20:52;;;;;;;4.75;2.05;;;;;18.60;94322.00;;;;7390037;19;20182;-77
2023/07/16 08:23:29;;;;;;;5.00;1.88;;;;;18.70;94330.00;;;;7390510;19;20140;-79
2023/07/16 08:26:06;;;;;;;4.95;1.63;;;;;18.90;94311.00;;;;7393306;19;20136;-77
2023/07/16 08:28:40;;;;;;;4.82;1.80;;;;;19.80;94353.00;;;;7389844;19;20152;-80
2023/07/16 08:31:15;;;;;;;3.75;1.70;;;;;18.70;94345.00;;;;7392175;19;20223;-78
2023/07/16 08:33:49;;;;;;;4.60;1.58;;;;;18.70;94312.00;;;;7391883;19;20600;-78
2023/07/16 08:36:25;;;;;;;3.03;1.52;;;;;19.20;94306.00;;;;7392789;19;20509;-76
2023/07/16 08:39:00;;;;;;;3.63;1.52;;;;;20.60;94314.00;;;;7389908;19;20689;-78
2023/07/16 08:41:29;;;;;;;2.42;1.70;;;;;21.10;94341.00;;;;7386783;19;20145;-79
2023/07/16 08:44:04;;;;;;;3.20;1.55;;;;;21.30;94342.00;;;;7388846;19;20172;-78
2023/07/16 08:46:39;;;;;;;3.58;2.00;;;;;21.40;94347.00;;;;7388436;19;20148;-77
2023/07/16 08:49:23;;;;;;;7.40;1.75;;;;;20.10;94350.00;;;;7387443;19;20156;-77
2023/07/16 08:51:57;;;;;;;5.25;1.85;;;;;20.10;94358.00;;;;7387211;19;20156;-78
2023/07/16 08:54:35;;;;;;;5.35;1.80;;;;;19.70;94349.00;;;;7390750;19;20136;-80
2023/07/16 08:57:13;;;;;;;6.15;1.63;;;;;19.40;94319.00;;;;7388011;19;20212;-78
2023/07/16 08:59:49;;;;;;;7.95;2.00;;;;;19.10;94365.00;;;;7389988;19;20251;-78
2023/07/16 09:02:22;;;;;;;5.10;1.92;;;;;20.00;94354.00;;;;7389581;19;20184;-78
2023/07/16 09:04:59;;;;;;;2.72;1.77;;;;;19.20;94369.00;;;;7390256;19;20140;-79
2023/07/16 09:07:29;;;;;;;3.33;1.58;;;;;19.60;94362.00;;;;7391407;19;20581;-81
2023/07/16 09:10:04;;;;;;;5.30;1.90;;;;;19.90;94370.00;;;;7386544;19;20271;-79
2023/07/16 09:12:32;;;;;;;5.60;1.80;;;;;18.80;94332.00;;;;7386765;19;20743;-78
2023/07/16 09:15:07;;;;;;;4.75;1.92;;;;;19.30;94337.00;;;;7392915;19;20217;-80
2023/07/16 09:17:42;;;;;;;5.75;2.13;;;;;20.50;94331.00;;;;7389291;19;20159;-79
2023/07/16 09:20:17;;;;;;;4.40;2.00;;;;;21.00;94359.00;;;;7389724;19;20163;-80
2023/07/16 09:22:48;;;;;;;3.92;1.55;;;;;22.00;94315.00;;;;7387163;19;20125;-79
2023/07/16 09:25:29;;;;;;;3.53;1.90;;;;;22.90;94334.00;;;;7388075;19;20181;-79
2023/07/16 09:28:01;;;;;;;3.67;1.65;;;;;22.30;94340.00;;;;7387599;19;20610;-78
2023/07/16 09:30:36;;;;;;;5.32;1.88;;;;;21.20;94349.00;;;;7387489;19;20506;-77
2023/07/16 09:33:19;;;;;;;2.90;1.52;;;;;21.50;94358.00;;;;7389438;19;20148;-79
2023/07/16 09:35:50;;;;;;;2.38;1.67;;;;;20.40;94358.00;;;;7387436;19;20144;-79
2023/07/16 09:38:26;;;;;;;5.72;1.65;;;;;20.70;94336.00;;;;7392009;19;20996;-79
2023/07/16 09:41:05;;;;;;;3.75;2.03;;;;;21.90;94335.00;;;;7387212;19;20516;-78
2023/07/16 09:43:41;;;;;;;3.38;1.77;;;;;22.00;94352.00;;;;7389242;19;20139;-79
2023/07/16 09:46:17;;;;;;;4.85;1.70;;;;;22.00;94339.00;;;;7387816;19;20612;-79
2023/07/16 09:49:05;;;;;;;5.10;1.90;;;;;20.40;94330.00;;;;7390395;19;20597;-78
2023/07/16 09:51:42;;;;;;;4.28;1.80;;;;;21.70;94326.00;;;;7392776;19;20154;-78
2023/07/16 09:57:47;;;;;;;2.22;1.85;;;;;23.40;94329.00;;;;7390355;19;20155;-77
2023/07/16 10:00:23;;;;;;;1.98;1.48;;;;;24.00;94347.00;;;;7387702;19;20219;-76
2023/07/16 10:02:52;;;;;;;3.20;1.63;;;;;24.50;94317.00;;;;7387428;19;20640;-76
2023/07/16 10:05:28;;;;;;;2.70;1.90;;;;;24.50;94328.00;;;;7388081;19;20523;-77
2023/07/16 10:08:02;;;;;;;5.63;2.08;;;;;24.30;94325.00;;;;7388278;19;20154;-76
2023/07/16 10:10:41;;;;;;;3.38;1.50;;;;;25.10;94327.00;;;;7387728;19;20144;-78
2023/07/16 10:13:11;;;;;;;3.67;1.98;;;;;25.50;94332.00;;;;7387335;19;20192;-79
2023/07/16 10:15:54;;;;;;;3.70;1.90;;;;;24.90;94360.00;;;;7387656;19;20174;-77
2023/07/16 10:18:24;;;;;;;6.07;1.95;;;;;24.10;94375.00;;;;7388965;19;20136;-76
2023/07/16 10:21:06;;;;;;;4.50;1.88;;;;;22.30;94370.00;;;;7389566;19;20159;-78
2023/07/16 10:23:43;;;;;;;2.85;1.50;;;;;21.20;94343.00;;;;7386188;19;20152;-78
2023/07/16 10:26:18;;;;;;;4.53;2.00;;;;;22.10;94335.00;;;;7388748;19;20152;-77
2023/07/16 10:28:54;;;;;;;2.22;1.52;;;;;23.90;94336.00;;;;7391456;19;20526;-76
2023/07/16 10:31:28;;;;;;;3.30;1.88;;;;;24.40;94337.00;;;;7388060;19;20192;-78
2023/07/16 10:34:04;;;;;;;4.88;1.63;;;;;24.80;94324.00;;;;7386341;19;20170;-77
2023/07/16 10:36:39;;;;;;;2.90;1.67;;;;;24.50;94321.00;;;;7388325;19;20128;-78
2023/07/16 10:39:07;;;;;;;4.13;1.70;;;;;25.20;94301.00;;;;7386123;19;20172;-78
2023/07/16 10:41:42;;;;;;;2.50;1.52;;;;;25.40;94297.00;;;;7386257;19;20236;-79
2023/07/16 10:44:14;;;;;;;2.13;1.50;;;;;25.40;94347.00;;;;7388143;19;20125;-77
2023/07/16 10:46:48;;;;;;;1.77;1.63;;;;;26.00;94319.00;;;;7385900;19;20200;-75
2023/07/16 10:49:29;;;;;;;4.05;1.55;;;;;26.10;94309.00;;;;7385228;19;20659;-77
2023/07/16 10:52:03;;;;;;;3.78;2.08;;;;;25.40;94301.00;;;;7389309;19;20522;-78
2023/07/16 10:54:31;;;;;;;2.28;1.60;;;;;26.70;94306.00;;;;7385867;19;20593;-77
2023/07/16 10:57:05;;;;;;;4.70;1.75;;;;;27.20;94295.00;;;;7384880;19;20145;-77
2023/07/16 10:59:33;;;;;;;6.18;1.80;;;;;27.10;94311.00;;;;7386370;19;20581;-78
2023/07/16 11:02:14;;;;;;;4.85;2.00;;;;;25.90;94352.00;;;;7387898;19;20489;-83
2023/07/16 11:04:47;;;;;;;6.88;2.20;;;;;23.50;94355.00;;;;7389386;19;20144;-78
2023/07/16 11:07:22;;;;;;;3.35;2.00;;;;;24.00;94298.00;;;;7392584;19;20143;-80
2023/07/16 11:09:54;;;;;;;2.35;1.90;;;;;24.40;94350.00;;;;7388588;19;20633;-78
2023/07/16 11:12:29;;;;;;;3.30;1.77;;;;;24.40;94349.00;;;;7387920;19;20589;-78
2023/07/16 11:14:57;;;;;;;3.97;2.10;;;;;25.20;94327.00;;;;7385934;19;20173;-79
2023/07/16 11:17:25;;;;;;;3.67;1.88;;;;;25.50;94335.00;;;;7385413;19;20624;-79
2023/07/16 11:20:02;;;;;;;3.85;1.60;;;;;24.30;94333.00;;;;7386422;19;20148;-79
2023/07/16 11:22:40;;;;;;;3.03;1.70;;;;;24.80;94338.00;;;;7388650;19;21408;-78
2023/07/16 11:25:23;;;;;;;4.63;1.88;;;;;24.90;94334.00;;;;7387889;19;20557;-78
2023/07/16 11:27:56;;;;;;;2.47;1.70;;;;;25.70;94341.00;;;;7387444;19;20617;-80
2023/07/16 11:30:30;;;;;;;4.97;2.13;;;;;25.40;94362.00;;;;7389182;19;20145;-78
2023/07/16 11:32:59;;;;;;;3.53;1.90;;;;;24.40;94362.00;;;;7388050;19;20159;-77
2023/07/16 11:35:33;;;;;;;2.17;1.80;;;;;24.10;94314.00;;;;7385919;19;20139;-77
2023/07/16 11:38:01;;;;;;;4.70;2.03;;;;;25.30;94309.00;;;;7388919;19;20166;-80
2023/07/16 11:40:38;;;;;;;3.63;2.13;;;;;24.70;94349.00;;;;7386281;19;20165;-76
2023/07/16 11:43:13;;;;;;;2.95;1.85;;;;;24.60;94353.00;;;;7384293;19;20145;-78
2023/07/16 11:45:49;;;;;;;3.22;1.88;;;;;24.60;94343.00;;;;7388078;19;20153;-77
2023/07/16 11:48:16;;;;;;;3.75;2.10;;;;;24.80;94314.00;;;;7385279;19;20172;-80
2023/07/16 11:50:58;;;;;;;4.43;1.83;;;;;26.10;94305.00;;;;7387999;19;20137;-79
2023/07/16 11:53:27;;;;;;;2.50;1.77;;;;;26.90;94297.00;;;;7386588;19;20144;-78
2023/07/16 11:56:06;;;;;;;2.00;1.70;;;;;27.10;94307.00;;;;7386781;19;20176;-80
2023/07/16 11:58:41;;;;;;;3.00;1.92;;;;;27.30;94293.00;;;;7384806;19;20147;-79
2023/07/16 12:01:16;;;;;;;3.85;1.80;;;;;28.20;94294.00;;;;7384504;19;20611;-82
2023/07/16 12:03:51;;;;;;;3.60;1.98;;;;;27.90;94290.00;;;;7382988;19;20830;-78
2023/07/16 12:06:25;;;;;;;3.10;2.13;;;;;28.30;94291.00;;;;7386712;19;20171;-77
2023/07/16 12:08:55;;;;;;;3.47;1.98;;;;;28.10;94306.00;;;;7384876;19;20150;-78
2023/07/16 12:11:29;;;;;;;2.90;1.70;;;;;26.90;94304.00;;;;7379394;19;20129;-77
2023/07/16 12:14:04;;;;;;;4.25;2.00;;;;;27.30;94300.00;;;;7383494;19;20593;-78
2023/07/16 12:16:38;;;;;;;3.95;1.75;;;;;27.00;94289.00;;;;7383831;19;20522;-77
2023/07/16 12:19:09;;;;;;;2.78;1.70;;;;;27.50;94302.00;;;;7383866;19;20144;-77
2023/07/16 12:21:44;;;;;;;4.20;1.90;;;;;27.00;94293.00;;;;7385681;19;20145;-77
2023/07/16 12:24:21;;;;;;;3.58;1.90;;;;;27.50;94290.00;;;;7385791;19;20588;-78
2023/07/16 12:26:55;;;;;;;3.90;2.30;;;;;28.10;94289.00;;;;7383323;19;20148;-77
2023/07/16 12:29:29;;;;;;;2.70;1.95;;;;;28.50;94290.00;;;;7384097;19;20149;-78
2023/07/16 12:32:04;;;;;;;6.22;2.20;;;;;28.50;94287.00;;;;7384689;19;20642;-77
2023/07/16 12:34:32;;;;;;;3.13;1.95;;;;;28.40;94292.00;;;;7383736;19;20492;-77
2023/07/16 12:37:09;;;;;;;2.72;1.77;;;;;28.20;94311.00;;;;7383868;19;20181;-77
2023/07/16 12:39:38;;;;;;;5.97;2.05;;;;;27.40;94320.00;;;;7383335;19;20584;-80
2023/07/16 12:42:15;;;;;;;3.65;2.10;;;;;26.70;94283.00;;;;7382525;19;20156;-76
2023/07/16 12:44:46;;;;;;;2.08;1.60;;;;;27.40;94289.00;;;;7382439;19;20159;-76
2023/07/16 12:47:20;;;;;;;4.13;1.92;;;;;28.30;94284.00;;;;7386179;19;20132;-76
2023/07/16 12:49:55;;;;;;;3.25;2.03;;;;;28.20;94291.00;;;;7388322;19;20672;-77
2023/07/16 12:52:35;;;;;;;3.70;1.95;;;;;28.40;94287.00;;;;7389271;19;20132;-77
2023/07/16 12:55:05;;;;;;;4.53;2.03;;;;;28.30;94292.00;;;;7389465;19;20621;-78
2023/07/16 12:57:39;;;;;;;2.33;1.98;;;;;28.10;94293.00;;;;7390755;19;20188;-76